Time;durP1;ratioP1;P1;durP2;ratioP2;P2;SDS_P1;SDS_P2;PMS_P1;PMS_P2;Temp;Humidity;BMP_temperature;BMP_pressure;BME280_temperature;BME280_humidity;BME280_pressure;Samples;Min_cycle;Max_cycle;Signal;HPM_P1;HPM_P2
2021/09/07 00:00:02;;;;;;;;;;;;;;;21.90;47.35;96395.19;1048635;28;1088;-56
2021/09/07 00:00:32;;;;;;;;;;;;;;;21.89;47.43;96391.75;1046557;28;1939;-55
2021/09/07 00:01:03;;;;;;;;;;;;;;;21.88;47.55;96390.97;1047459;28;1073;-54
2021/09/07 00:01:33;;;;;;;;;;;;;;;21.88;47.44;96390.19;1048784;28;946;-55
2021/09/07 00:02:03;;;;;;;;;;;;;;;21.89;47.65;96394.41;1048265;28;1114;-54
2021/09/07 00:02:34;;;;;;;;;;;;;;;21.88;47.46;96393.59;1047855;28;1082;-56
2021/09/07 00:03:04;;;;;;;;;;;;;;;21.89;47.63;96394.41;1048525;28;1910;-56
2021/09/07 00:03:34;;;;;;;;;;;;;;;21.88;47.35;96388.31;1048898;28;1122;-56
2021/09/07 00:04:05;;;;;;;;;;;;;;;21.88;47.66;96390.19;1048592;28;1100;-54
2021/09/07 00:04:35;;;;;;;;;;;;;;;21.88;47.61;96383.03;1048475;28;720;-55
2021/09/07 00:05:06;;;;;;;;;;;;;;;21.88;47.65;96396.25;1047551;28;1690;-56
2021/09/07 00:05:36;;;;;;;;;;;;;;;21.88;47.38;96390.97;1045349;28;2234;-55
2021/09/07 00:06:07;;;;;;;;;;;;;;;21.87;47.63;96393.88;1047894;28;1144;-55
2021/09/07 00:06:37;;;;;;;;;;;;;;;21.88;47.46;96395.47;1048996;28;1059;-56
2021/09/07 00:07:07;;;;;;;;;;;;;;;21.88;47.66;96395.47;1048740;28;1072;-57
2021/09/07 00:07:38;;;;;;;;;;;;;;;21.88;47.42;96392.84;1048717;28;1227;-58
2021/09/07 00:08:08;;;;;;;;;;;;;;;21.88;47.65;96389.41;1048192;28;1064;-56
2021/09/07 00:08:38;;;;;;;;;;;;;;;21.88;47.52;96393.59;1048669;28;632;-58
2021/09/07 00:09:08;;;;;;;;;;;;;;;21.88;47.62;96386.75;1048342;28;1132;-58
2021/09/07 00:09:39;;;;;;;;;;;;;;;21.88;47.75;96396.25;1048665;28;1114;-58
2021/09/07 00:10:09;;;;;;;;;;;;;;;21.88;47.60;96387.56;1048714;28;1098;-52
2021/09/07 00:10:40;;;;;;;;;;;;;;;21.88;47.52;96386.75;1047379;28;1936;-57
2021/09/07 00:11:10;;;;;;;;;;;;;;;21.88;47.66;96390.19;1047325;28;1169;-53
2021/09/07 00:11:40;;;;;;;;;;;;;;;21.88;47.48;96383.03;1048735;28;1145;-54
2021/09/07 00:12:11;;;;;;;;;;;;;;;21.89;47.68;96383.84;1048724;28;1122;-55
2021/09/07 00:12:41;;;;;;;;;;;;;;;21.88;47.36;96383.03;1048407;28;1346;-56
2021/09/07 00:13:12;;;;;;;;;;;;;;;21.88;47.75;96384.91;1048836;28;1209;-57
2021/09/07 00:13:42;;;;;;;;;;;;;;;21.89;47.61;96386.47;1048823;28;1059;-57
2021/09/07 00:14:13;;;;;;;;;;;;;;;21.89;47.71;96383.84;1048621;28;1178;-58
2021/09/07 00:14:43;;;;;;;;;;;;;;;21.89;47.74;96381.22;1046134;28;1656;-57
2021/09/07 00:15:14;;;;;;;;;;;;;;;21.89;47.64;96381.22;1048895;28;1194;-58
2021/09/07 00:15:44;;;;;;;;;;;;;;;21.90;47.59;96379.38;1047263;28;2009;-53
2021/09/07 00:16:14;;;;;;;;;;;;;;;21.89;47.63;96381.22;1047629;28;1873;-58
2021/09/07 00:16:45;;;;;;;;;;;;;;;21.89;47.47;96373.28;1048670;28;1048;-57
2021/09/07 00:17:15;;;;;;;;;;;;;;;21.88;47.73;96374.34;1048815;28;1122;-57
2021/09/07 00:17:45;;;;;;;;;;;;;;;21.89;47.33;96383.84;1047608;28;1058;-57
2021/09/07 00:18:16;;;;;;;;;;;;;;;21.88;47.69;96371.72;1048740;28;1318;-54
2021/09/07 00:18:46;;;;;;;;;;;;;;;21.88;47.37;96376.19;1048590;28;1162;-56
2021/09/07 00:19:16;;;;;;;;;;;;;;;21.88;47.80;96382.28;1048853;28;1095;-57
2021/09/07 00:19:47;;;;;;;;;;;;;;;21.88;47.68;96377.00;1048784;28;1146;-58
2021/09/07 00:20:17;;;;;;;;;;;;;;;21.88;47.64;96374.34;1048812;28;1154;-56
2021/09/07 00:20:47;;;;;;;;;;;;;;;21.87;47.82;96378.03;1055322;28;2167;-57
2021/09/07 00:21:17;;;;;;;;;;;;;;;21.88;47.71;96383.03;1056830;28;1126;-58
2021/09/07 00:21:48;;;;;;;;;;;;;;;21.88;47.66;96377.75;1056924;28;1104;-56
2021/09/07 00:22:18;;;;;;;;;;;;;;;21.88;47.68;96377.75;1056625;28;1151;-56
2021/09/07 00:22:48;;;;;;;;;;;;;;;21.90;47.69;96384.66;1048260;28;1272;-56
2021/09/07 00:23:19;;;;;;;;;;;;;;;21.88;47.73;96382.28;1045864;28;1983;-56
2021/09/07 00:23:49;;;;;;;;;;;;;;;21.88;47.48;96383.03;1046718;28;2340;-57
2021/09/07 00:24:20;;;;;;;;;;;;;;;21.88;47.79;96379.63;1048641;28;1131;-54
2021/09/07 00:24:50;;;;;;;;;;;;;;;21.89;47.52;96389.13;1048704;28;1012;-53
2021/09/07 00:25:21;;;;;;;;;;;;;;;21.88;47.65;96382.28;1048696;28;988;-58
2021/09/07 00:25:51;;;;;;;;;;;;;;;21.89;47.66;96383.84;1047504;28;2201;-54
2021/09/07 00:26:21;;;;;;;;;;;;;;;21.89;47.71;96383.84;1048771;28;1198;-58
2021/09/07 00:26:52;;;;;;;;;;;;;;;21.88;47.72;96387.56;1048569;28;1031;-56
2021/09/07 00:27:22;;;;;;;;;;;;;;;21.89;47.66;96383.84;1046141;28;961;-56
2021/09/07 00:27:53;;;;;;;;;;;;;;;21.90;47.71;96382.00;1048473;28;1063;-57
2021/09/07 00:28:23;;;;;;;;;;;;;;;21.89;47.57;96383.84;1048781;28;1174;-56
2021/09/07 00:28:53;;;;;;;;;;;;;;;21.89;47.56;96383.84;1048510;28;1043;-56
2021/09/07 00:29:24;;;;;;;;;;;;;;;21.88;47.59;96382.28;1048785;28;1067;-58
2021/09/07 00:29:54;;;;;;;;;;;;;;;21.89;47.87;96383.84;1048366;28;1637;-57
2021/09/07 00:30:25;;;;;;;;;;;;;;;21.89;47.51;96375.94;1042372;28;1635;-57
2021/09/07 00:30:55;;;;;;;;;;;;;;;21.88;47.71;96372.50;1049804;28;1865;-57
2021/09/07 00:31:25;;;;;;;;;;;;;;;21.89;47.69;96373.28;1052549;28;1841;-58
2021/09/07 00:31:56;;;;;;;;;;;;;;;21.90;47.80;96379.38;1056613;28;1150;-56
2021/09/07 00:32:26;;;;;;;;;;;;;;;21.91;47.44;96373.03;1056709;28;1094;-57
2021/09/07 00:32:56;;;;;;;;;;;;;;;21.90;47.60;96369.59;1047467;28;1251;-54
2021/09/07 00:33:27;;;;;;;;;;;;;;;21.90;47.58;96372.25;1048768;28;1055;-54
2021/09/07 00:33:57;;;;;;;;;;;;;;;21.91;47.77;96373.03;1048640;28;1102;-55
2021/09/07 00:34:27;;;;;;;;;;;;;;;21.90;47.59;96374.88;1048495;28;1221;-54
2021/09/07 00:34:58;;;;;;;;;;;;;;;21.91;47.81;96373.03;1048189;28;1628;-54
2021/09/07 00:35:29;;;;;;;;;;;;;;;21.90;47.63;96369.59;1048905;28;843;-57
2021/09/07 00:36:00;;;;;;;;;;;;;;;21.90;47.77;96374.88;1048451;28;996;-57
2021/09/07 00:36:30;;;;;;;;;;;;;;;21.88;47.78;96372.50;1045779;28;2238;-57
2021/09/07 00:37:01;;;;;;;;;;;;;;;21.89;47.83;96373.28;1048441;28;1001;-55
2021/09/07 00:37:31;;;;;;;;;;;;;;;21.90;47.52;96377.53;1048366;28;1048;-57
2021/09/07 00:38:01;;;;;;;;;;;;;;;21.89;47.76;96375.94;1048393;28;1056;-56
2021/09/07 00:38:32;;;;;;;;;;;;;;;21.90;47.57;96374.88;1048361;28;1155;-57
2021/09/07 00:39:02;;;;;;;;;;;;;;;21.90;47.86;96371.44;1048417;28;1080;-55
2021/09/07 00:39:32;;;;;;;;;;;;;;;21.89;47.65;96368.00;1047903;28;1948;-54
2021/09/07 00:40:03;;;;;;;;;;;;;;;21.88;47.87;96369.84;1048437;28;1116;-57
2021/09/07 00:40:33;;;;;;;;;;;;;;;21.89;47.80;96368.00;1048845;28;1051;-54
2021/09/07 00:41:06;;;;;;;;;;;;;;;21.89;47.72;96368.00;1048199;28;1295;-52
2021/09/07 00:41:37;;;;;;;;;;;;;;;21.89;47.82;96370.66;1042245;28;2305;-56
2021/09/07 00:42:07;;;;;;;;;;;;;;;21.88;47.80;96366.44;1044045;28;1249;-57
2021/09/07 00:42:37;;;;;;;;;;;;;;;21.88;47.52;96372.50;1044146;28;1761;-55
2021/09/07 00:43:08;;;;;;;;;;;;;;;21.89;47.85;96370.66;1048050;28;1905;-57
2021/09/07 00:43:41;;;;;;;;;;;;;;;21.88;47.48;96364.56;1048583;28;1144;-58
2021/09/07 00:44:15;;;;;;;;;;;;;;;21.88;47.57;96369.09;1048472;28;1326;-56
2021/09/07 00:44:45;;;;;;;;;;;;;;;21.88;47.61;96369.09;1048152;28;1096;-56
2021/09/07 00:45:15;;;;;;;;;;;;;;;21.88;47.81;96366.44;1048252;28;1171;-56
2021/09/07 00:45:46;;;;;;;;;;;;;;;21.88;47.72;96367.22;1048441;28;1151;-57
2021/09/07 00:46:16;;;;;;;;;;;;;;;21.88;47.68;96363.81;1047591;28;1824;-54
2021/09/07 00:46:50;;;;;;;;;;;;;;;21.88;47.72;96366.44;1048506;28;1016;-55
2021/09/07 00:47:20;;;;;;;;;;;;;;;21.88;47.55;96366.44;1048656;28;1174;-56
2021/09/07 00:47:50;;;;;;;;;;;;;;;21.88;47.59;96365.66;1047665;28;992;-56
2021/09/07 00:48:21;;;;;;;;;;;;;;;21.88;47.69;96369.09;1048791;28;1209;-53
2021/09/07 00:48:51;;;;;;;;;;;;;;;21.88;47.82;96360.38;1048700;28;1067;-56
2021/09/07 00:49:21;;;;;;;;;;;;;;;21.88;47.50;96367.22;1047401;28;1663;-57
2021/09/07 00:49:52;;;;;;;;;;;;;;;21.88;47.71;96364.56;1048663;28;1127;-57
2021/09/07 00:50:22;;;;;;;;;;;;;;;21.88;47.64;96366.44;1046795;28;969;-55
2021/09/07 00:50:53;;;;;;;;;;;;;;;21.88;47.96;96367.22;1048830;28;1036;-56
2021/09/07 00:51:26;;;;;;;;;;;;;;;21.88;47.54;96365.66;1046342;28;2044;-57
2021/09/07 00:51:56;;;;;;;;;;;;;;;21.88;47.69;96355.09;1049747;28;1872;-55
2021/09/07 00:52:26;;;;;;;;;;;;;;;21.88;47.58;96368.28;1052332;28;1481;-56
2021/09/07 00:52:57;;;;;;;;;;;;;;;21.88;47.46;96363.81;1052128;28;1402;-54
2021/09/07 00:53:27;;;;;;;;;;;;;;;21.88;47.68;96376.19;1052031;28;1028;-57
2021/09/07 00:53:57;;;;;;;;;;;;;;;21.87;47.83;96370.13;1046876;28;1974;-56
2021/09/07 00:54:29;;;;;;;;;;;;;;;21.88;47.91;96363.00;1042386;28;2023;-58
2021/09/07 00:54:59;;;;;;;;;;;;;;;21.87;47.60;96359.56;1044333;28;1085;-56
2021/09/07 00:55:29;;;;;;;;;;;;;;;21.88;47.82;96366.44;1044104;28;1100;-54
2021/09/07 00:56:00;;;;;;;;;;;;;;;21.86;47.70;96363.28;1044286;28;1143;-57
2021/09/07 00:56:30;;;;;;;;;;;;;;;21.88;47.68;96363.00;1044468;28;1186;-58
2021/09/07 00:57:01;;;;;;;;;;;;;;;21.87;47.88;96370.13;1040263;28;1096;-56
2021/09/07 00:57:32;;;;;;;;;;;;;;;21.87;47.59;96359.56;1044195;28;1075;-56
2021/09/07 00:58:03;;;;;;;;;;;;;;;21.87;47.63;96362.22;1048323;28;1058;-58
2021/09/07 00:58:33;;;;;;;;;;;;;;;21.88;47.55;96368.28;1044579;28;1053;-56
2021/09/07 00:59:04;;;;;;;;;;;;;;;21.88;47.79;96366.44;1048423;28;1179;-55
2021/09/07 00:59:35;;;;;;;;;;;;;;;21.87;47.48;96364.84;1043258;28;2220;-56
2021/09/07 01:00:06;;;;;;;;;;;;;;;21.88;47.57;96369.09;1043872;28;1763;-57
2021/09/07 01:00:36;;;;;;;;;;;;;;;21.88;47.61;96365.66;1048449;28;986;-57
2021/09/07 01:01:06;;;;;;;;;;;;;;;21.87;47.89;96364.84;1048261;28;970;-56
2021/09/07 01:01:36;;;;;;;;;;;;;;;21.88;47.39;96368.28;1048635;28;1033;-58
2021/09/07 01:02:07;;;;;;;;;;;;;;;21.88;47.84;96370.91;1048725;28;1139;-54
2021/09/07 01:02:37;;;;;;;;;;;;;;;21.87;47.74;96364.84;1047572;28;1068;-56
2021/09/07 01:03:07;;;;;;;;;;;;;;;21.87;47.96;96370.13;1048202;28;1970;-56
2021/09/07 01:03:38;;;;;;;;;;;;;;;21.88;47.62;96360.38;1048297;28;1089;-57
2021/09/07 01:04:08;;;;;;;;;;;;;;;21.87;47.65;96367.47;1048290;28;1151;-58
2021/09/07 01:04:38;;;;;;;;;;;;;;;21.87;47.59;96370.13;1047472;28;2059;-57
2021/09/07 01:05:09;;;;;;;;;;;;;;;21.88;47.96;96371.72;1048526;28;1132;-55
2021/09/07 01:05:39;;;;;;;;;;;;;;;21.86;47.74;96366.69;1044178;28;1061;-57
2021/09/07 01:06:10;;;;;;;;;;;;;;;21.88;47.72;96365.66;1039991;28;1038;-57
2021/09/07 01:06:40;;;;;;;;;;;;;;;21.88;47.93;96366.44;1040351;28;1140;-58
2021/09/07 01:07:11;;;;;;;;;;;;;;;21.88;47.79;96365.66;1040384;28;1191;-56
2021/09/07 01:07:47;;;;;;;;;;;;;;;21.88;47.89;96369.09;1044678;28;1124;-56
2021/09/07 01:08:18;;;;;;;;;;;;;;;21.88;47.90;96366.44;1048401;28;1225;-57
2021/09/07 01:08:54;;;;;;;;;;;;;;;21.88;47.72;96371.72;1048308;28;1186;-56
2021/09/07 01:09:44;;;;;;;;;;;;;;;21.88;47.84;96361.16;1047184;28;1404;-57
2021/09/07 01:10:34;;;;;;;;;;;;;;;21.88;47.86;96366.44;1046258;28;1035;-56
2021/09/07 01:11:07;;;;;;;;;;;;;;;21.88;47.83;96369.09;1045788;28;1656;-55
2021/09/07 01:11:39;;;;;;;;;;;;;;;21.89;47.51;96370.66;1048548;28;1111;-55
2021/09/07 01:12:10;;;;;;;;;;;;;;;21.88;47.62;96369.09;1048094;28;1175;-58
2021/09/07 01:12:40;;;;;;;;;;;;;;;21.88;47.96;96365.66;1044312;28;1141;-57
2021/09/07 01:13:11;;;;;;;;;;;;;;;21.88;48.02;96369.09;1044202;28;2305;-56
2021/09/07 01:14:02;;;;;;;;;;;;;;;21.88;47.84;96363.00;1045902;28;1298;-57
2021/09/07 01:14:52;;;;;;;;;;;;;;;21.88;47.67;96365.66;1045867;28;1397;-56
2021/09/07 01:15:22;;;;;;;;;;;;;;;21.88;47.71;96369.09;1048906;28;829;-56
2021/09/07 01:15:53;;;;;;;;;;;;;;;21.88;47.69;96369.09;1046066;28;1404;-58
2021/09/07 01:16:44;;;;;;;;;;;;;;;21.87;47.76;96367.47;1050473;28;1198;-54
2021/09/07 01:17:35;;;;;;;;;;;;;;;21.87;47.90;96370.13;1041721;28;2217;-55
2021/09/07 01:18:11;;;;;;;;;;;;;;;21.88;47.80;96371.72;1048237;28;1078;-56
2021/09/07 01:18:42;;;;;;;;;;;;;;;21.87;47.85;96367.47;1047163;28;1900;-57
2021/09/07 01:19:12;;;;;;;;;;;;;;;21.88;47.86;96360.38;1048538;28;1222;-57
2021/09/07 01:19:45;;;;;;;;;;;;;;;21.86;47.61;96371.97;1047489;28;2100;-57
2021/09/07 01:20:16;;;;;;;;;;;;;;;21.86;47.67;96363.28;1044130;28;1315;-56
2021/09/07 01:20:49;;;;;;;;;;;;;;;21.87;47.90;96362.22;1048475;28;1259;-58
2021/09/07 01:21:39;;;;;;;;;;;;;;;21.87;47.77;96362.22;1044390;28;853;-56
2021/09/07 01:22:29;;;;;;;;;;;;;;;21.86;47.84;96358.78;1050071;28;934;-56
2021/09/07 01:23:20;;;;;;;;;;;;;;;21.86;47.76;96358.00;1048730;28;1976;-57
2021/09/07 01:24:06;;;;;;;;;;;;;;;21.88;47.89;96358.53;1047731;28;1249;-55
2021/09/07 01:24:56;;;;;;;;;;;;;;;21.86;47.93;96352.72;1045871;28;1286;-54
2021/09/07 01:25:26;;;;;;;;;;;;;;;21.86;47.56;96348.22;1044290;28;1723;-55
2021/09/07 01:26:17;;;;;;;;;;;;;;;21.87;47.90;96349.00;1050262;28;1286;-57
2021/09/07 01:27:07;;;;;;;;;;;;;;;21.87;48.03;96343.72;1049343;28;1733;-58
2021/09/07 01:27:58;;;;;;;;;;;;;;;21.87;47.90;96349.00;1047761;28;1199;-58
2021/09/07 01:28:29;;;;;;;;;;;;;;;21.87;47.95;96343.72;1056751;28;1505;-54
2021/09/07 01:29:00;;;;;;;;;;;;;;;21.86;47.89;96348.22;1056755;28;1060;-57
2021/09/07 01:29:32;;;;;;;;;;;;;;;21.87;47.65;96349.00;1050879;28;2171;-57
2021/09/07 01:30:22;;;;;;;;;;;;;;;21.86;47.70;96344.81;1046170;28;1628;-55
2021/09/07 01:31:12;;;;;;;;;;;;;;;21.87;47.59;96343.72;1047219;28;1077;-53
2021/09/07 01:31:45;;;;;;;;;;;;;;;21.87;47.80;96349.00;1055605;28;2114;-57
2021/09/07 01:32:17;;;;;;;;;;;;;;;21.87;47.84;96349.00;1048515;28;1461;-56
2021/09/07 01:33:08;;;;;;;;;;;;;;;21.86;47.90;96347.44;1047905;28;1382;-58
2021/09/07 01:33:58;;;;;;;;;;;;;;;21.86;47.84;96347.44;1046399;28;1267;-54
2021/09/07 01:34:29;;;;;;;;;;;;;;;21.85;47.63;96346.66;1048351;28;2186;-57
2021/09/07 01:34:59;;;;;;;;;;;;;;;21.85;47.76;96346.66;1049015;28;1026;-55
2021/09/07 01:35:29;;;;;;;;;;;;;;;21.86;47.56;96352.72;1049394;28;1014;-56
2021/09/07 01:35:59;;;;;;;;;;;;;;;21.85;47.78;96356.41;1049101;28;1048;-57
2021/09/07 01:36:30;;;;;;;;;;;;;;;21.85;47.82;96348.50;1049583;28;1218;-58
2021/09/07 01:37:00;;;;;;;;;;;;;;;21.85;47.84;96343.22;1049316;28;1056;-56
2021/09/07 01:37:30;;;;;;;;;;;;;;;21.84;47.72;96346.91;1049436;28;901;-56
2021/09/07 01:38:01;;;;;;;;;;;;;;;21.85;47.83;96345.84;1049059;28;1344;-56
2021/09/07 01:38:31;;;;;;;;;;;;;;;21.85;47.60;96345.84;1049255;28;1064;-58
2021/09/07 01:39:02;;;;;;;;;;;;;;;21.84;47.75;96347.69;1049054;28;1072;-58
2021/09/07 01:39:32;;;;;;;;;;;;;;;21.85;47.78;96340.56;1047418;28;2038;-56
2021/09/07 01:40:02;;;;;;;;;;;;;;;21.85;47.96;96351.13;1049562;28;1060;-54
2021/09/07 01:40:33;;;;;;;;;;;;;;;21.85;47.95;96344.00;1049607;28;1169;-55
2021/09/07 01:41:03;;;;;;;;;;;;;;;21.86;47.91;96342.16;1049275;28;1107;-56
2021/09/07 01:41:33;;;;;;;;;;;;;;;21.86;47.56;96342.16;1049500;28;1059;-57
2021/09/07 01:42:04;;;;;;;;;;;;;;;21.85;47.78;96343.22;1049417;28;1099;-58
2021/09/07 01:42:34;;;;;;;;;;;;;;;21.85;47.55;96346.66;1044981;28;1054;-56
2021/09/07 01:43:05;;;;;;;;;;;;;;;21.86;47.70;96344.81;1048476;28;1906;-57
2021/09/07 01:43:35;;;;;;;;;;;;;;;21.86;47.52;96342.16;1048404;28;2133;-57
2021/09/07 01:44:05;;;;;;;;;;;;;;;21.86;47.83;96347.44;1049128;28;1096;-57
2021/09/07 01:44:38;;;;;;;;;;;;;;;21.86;47.96;96336.88;1048319;28;2124;-55
2021/09/07 01:45:09;;;;;;;;;;;;;;;21.85;47.86;96343.22;1049182;28;1071;-56
2021/09/07 01:45:39;;;;;;;;;;;;;;;21.85;47.60;96343.22;1049154;28;1247;-58
2021/09/07 01:46:09;;;;;;;;;;;;;;;21.84;47.61;96339.78;1049151;28;1140;-55
2021/09/07 01:46:40;;;;;;;;;;;;;;;21.86;47.78;96342.16;1049104;28;1091;-55
2021/09/07 01:47:11;;;;;;;;;;;;;;;21.85;47.76;96336.09;1049542;28;1142;-58
2021/09/07 01:47:41;;;;;;;;;;;;;;;21.85;47.66;96336.09;1048160;28;1078;-57
2021/09/07 01:48:13;;;;;;;;;;;;;;;21.85;47.88;96341.38;1049575;28;1193;-56
2021/09/07 01:48:43;;;;;;;;;;;;;;;21.84;48.01;96339.78;1049499;28;1027;-56
2021/09/07 01:49:14;;;;;;;;;;;;;;;21.85;47.74;96340.56;1048037;28;1622;-58
2021/09/07 01:49:44;;;;;;;;;;;;;;;21.85;47.85;96337.94;1047816;28;2096;-56
2021/09/07 01:50:14;;;;;;;;;;;;;;;21.85;47.81;96336.09;1049550;28;1151;-56
2021/09/07 01:50:45;;;;;;;;;;;;;;;21.86;47.97;96339.53;1049671;28;1046;-55
2021/09/07 01:51:15;;;;;;;;;;;;;;;21.86;47.88;96342.16;1049126;28;1123;-55
2021/09/07 01:51:46;;;;;;;;;;;;;;;21.85;47.71;96338.72;1048979;28;1029;-56
2021/09/07 01:52:16;;;;;;;;;;;;;;;21.84;47.57;96339.78;1049188;28;1100;-58
2021/09/07 01:52:46;;;;;;;;;;;;;;;21.85;47.95;96341.38;1048760;28;1323;-54
2021/09/07 01:53:17;;;;;;;;;;;;;;;21.85;47.72;96335.28;1049564;28;1158;-56
2021/09/07 01:53:47;;;;;;;;;;;;;;;21.85;47.76;96337.94;1049169;28;1082;-56
2021/09/07 01:54:19;;;;;;;;;;;;;;;21.84;47.88;96337.13;1049344;28;1348;-54
2021/09/07 01:54:49;;;;;;;;;;;;;;;21.85;47.68;96341.38;1047663;28;2071;-57
2021/09/07 01:55:19;;;;;;;;;;;;;;;21.85;47.97;96335.28;1049511;28;1213;-56
2021/09/07 01:55:50;;;;;;;;;;;;;;;21.84;47.86;96334.50;1048888;28;1441;-57
2021/09/07 01:56:20;;;;;;;;;;;;;;;21.85;47.90;96345.84;1049125;28;1159;-55
2021/09/07 01:56:50;;;;;;;;;;;;;;;21.84;47.77;96334.50;1049158;28;1038;-54
2021/09/07 01:57:21;;;;;;;;;;;;;;;21.84;47.92;96334.50;1048366;28;1727;-57
2021/09/07 01:57:51;;;;;;;;;;;;;;;21.84;47.92;96334.50;1047088;28;1041;-56
2021/09/07 01:58:21;;;;;;;;;;;;;;;21.84;47.81;96342.41;1049040;28;1159;-56
2021/09/07 01:58:52;;;;;;;;;;;;;;;21.84;47.67;96336.38;1049223;28;1049;-58
2021/09/07 01:59:22;;;;;;;;;;;;;;;21.84;47.58;96344.28;1049059;28;1305;-58
2021/09/07 01:59:53;;;;;;;;;;;;;;;21.83;47.83;96332.13;1048215;28;2123;-58
2021/09/07 02:00:23;;;;;;;;;;;;;;;21.84;47.88;96339.78;1046770;28;1719;-55
2021/09/07 02:00:53;;;;;;;;;;;;;;;21.84;47.63;96337.13;1047190;28;1025;-56
2021/09/07 02:01:24;;;;;;;;;;;;;;;21.83;47.85;96338.19;1049432;28;1217;-55
2021/09/07 02:01:54;;;;;;;;;;;;;;;21.84;47.82;96339.00;1047731;28;2132;-57
2021/09/07 02:02:24;;;;;;;;;;;;;;;21.84;47.72;96344.28;1049527;28;1088;-58
2021/09/07 02:02:55;;;;;;;;;;;;;;;21.84;47.79;96339.00;1048143;28;1251;-58
2021/09/07 02:03:25;;;;;;;;;;;;;;;21.84;47.60;96333.72;1049422;28;1918;-56
2021/09/07 02:03:55;;;;;;;;;;;;;;;21.84;47.72;96339.78;1049275;28;1044;-57
2021/09/07 02:04:26;;;;;;;;;;;;;;;21.84;47.65;96339.78;1049213;28;1056;-55
2021/09/07 02:04:56;;;;;;;;;;;;;;;21.84;47.69;96336.38;1047041;28;2088;-56
2021/09/07 02:05:26;;;;;;;;;;;;;;;21.85;47.62;96340.56;1049662;28;926;-58
2021/09/07 02:05:57;;;;;;;;;;;;;;;21.84;47.71;96339.00;1049328;28;1076;-57
2021/09/07 02:06:28;;;;;;;;;;;;;;;21.83;47.72;96338.19;1049342;28;1145;-52
2021/09/07 02:06:58;;;;;;;;;;;;;;;21.84;47.89;96344.28;1049000;28;1045;-58
2021/09/07 02:07:28;;;;;;;;;;;;;;;21.84;47.82;96341.66;1049170;28;1080;-56
2021/09/07 02:07:59;;;;;;;;;;;;;;;21.84;47.81;96341.66;1048690;28;1088;-57
2021/09/07 02:08:29;;;;;;;;;;;;;;;21.83;47.56;96340.84;1048989;28;1052;-55
2021/09/07 02:08:59;;;;;;;;;;;;;;;21.83;47.98;96342.69;1048508;28;2006;-55
2021/09/07 02:09:30;;;;;;;;;;;;;;;21.84;47.74;96341.66;1048623;28;2126;-57
2021/09/07 02:10:00;;;;;;;;;;;;;;;21.83;47.99;96340.84;1047723;28;1768;-57
2021/09/07 02:10:30;;;;;;;;;;;;;;;21.84;47.91;96345.06;1052846;28;1492;-57
2021/09/07 02:11:01;;;;;;;;;;;;;;;21.84;47.88;96344.28;1053288;28;1123;-57
2021/09/07 02:11:32;;;;;;;;;;;;;;;21.84;47.60;96347.69;1053358;28;1217;-55
2021/09/07 02:12:02;;;;;;;;;;;;;;;21.82;48.08;96339.25;1057151;28;1064;-56
2021/09/07 02:12:33;;;;;;;;;;;;;;;21.83;47.62;96346.13;1048656;28;1383;-58
2021/09/07 02:13:03;;;;;;;;;;;;;;;21.83;47.83;96345.31;1048782;28;1354;-56
2021/09/07 02:13:33;;;;;;;;;;;;;;;21.83;47.75;96350.59;1049152;28;1029;-56
2021/09/07 02:14:04;;;;;;;;;;;;;;;21.82;47.61;96351.69;1049030;28;1085;-55
2021/09/07 02:14:34;;;;;;;;;;;;;;;21.82;47.80;96349.03;1048018;28;2253;-57
2021/09/07 02:15:05;;;;;;;;;;;;;;;21.82;47.88;96343.75;1048865;28;1908;-57
2021/09/07 02:15:35;;;;;;;;;;;;;;;21.83;47.71;96353.25;1044966;28;1052;-57
2021/09/07 02:16:05;;;;;;;;;;;;;;;21.82;47.94;96346.41;1045064;28;1104;-54
2021/09/07 02:16:35;;;;;;;;;;;;;;;21.83;47.67;96350.59;1048909;28;1194;-56
2021/09/07 02:17:06;;;;;;;;;;;;;;;21.83;47.73;96342.69;1049029;28;1088;-57
2021/09/07 02:17:37;;;;;;;;;;;;;;;21.83;47.92;96348.75;1047698;28;1742;-57
2021/09/07 02:18:07;;;;;;;;;;;;;;;21.83;47.89;96347.97;1048862;28;1089;-56
2021/09/07 02:18:38;;;;;;;;;;;;;;;21.83;47.69;96350.59;1049322;28;1048;-57
2021/09/07 02:19:08;;;;;;;;;;;;;;;21.84;47.86;96354.84;1049454;28;1183;-57
2021/09/07 02:19:39;;;;;;;;;;;;;;;21.83;47.89;96342.69;1048432;28;2177;-58
2021/09/07 02:20:09;;;;;;;;;;;;;;;21.83;47.84;96343.47;1049239;28;1045;-56
2021/09/07 02:20:40;;;;;;;;;;;;;;;21.83;47.67;96347.97;1049011;28;1347;-57
2021/09/07 02:21:10;;;;;;;;;;;;;;;21.82;47.65;96341.88;1047564;28;1080;-56
2021/09/07 02:21:41;;;;;;;;;;;;;;;21.82;47.77;96347.16;1049126;28;1186;-57
2021/09/07 02:22:11;;;;;;;;;;;;;;;21.82;47.88;96346.41;1049060;28;1100;-57
2021/09/07 02:22:41;;;;;;;;;;;;;;;21.82;47.88;96343.75;1049053;28;1032;-58
2021/09/07 02:23:11;;;;;;;;;;;;;;;21.82;47.90;96338.47;1049245;28;1894;-58
2021/09/07 02:23:42;;;;;;;;;;;;;;;21.82;47.84;96349.81;1049289;28;1040;-58
2021/09/07 02:24:14;;;;;;;;;;;;;;;21.82;48.06;96341.13;1049386;28;1106;-57
2021/09/07 02:24:44;;;;;;;;;;;;;;;21.82;47.76;96346.41;1047664;28;2194;-54
2021/09/07 02:25:14;;;;;;;;;;;;;;;21.82;47.95;96347.16;1044637;28;2069;-58
2021/09/07 02:25:45;;;;;;;;;;;;;;;21.81;47.85;96345.59;1048318;28;1466;-58
2021/09/07 02:26:15;;;;;;;;;;;;;;;21.82;47.95;96336.59;1048909;28;1183;-57
2021/09/07 02:26:45;;;;;;;;;;;;;;;21.82;47.77;96343.75;1049445;28;1043;-55
2021/09/07 02:27:15;;;;;;;;;;;;;;;21.84;47.91;96341.66;1046625;28;2029;-55
2021/09/07 02:27:46;;;;;;;;;;;;;;;21.82;47.83;96341.88;1046486;28;2106;-55
2021/09/07 02:28:16;;;;;;;;;;;;;;;21.83;47.62;96347.97;1049428;28;1177;-58
2021/09/07 02:28:46;;;;;;;;;;;;;;;21.83;48.11;96347.97;1049408;28;1083;-54
2021/09/07 02:29:16;;;;;;;;;;;;;;;21.83;47.64;96350.59;1049216;28;1221;-56
2021/09/07 02:29:47;;;;;;;;;;;;;;;21.83;47.98;96342.69;1049405;28;1088;-57
2021/09/07 02:30:17;;;;;;;;;;;;;;;21.83;47.83;96347.97;1046413;28;2104;-57
2021/09/07 02:30:47;;;;;;;;;;;;;;;21.83;47.60;96340.84;1046188;28;1045;-58
2021/09/07 02:31:18;;;;;;;;;;;;;;;21.83;47.85;96345.31;1049244;28;1209;-53
2021/09/07 02:31:48;;;;;;;;;;;;;;;21.82;47.87;96347.16;1049337;28;1154;-58
2021/09/07 02:32:18;;;;;;;;;;;;;;;21.82;47.71;96352.44;1049292;28;1106;-57
2021/09/07 02:32:49;;;;;;;;;;;;;;;21.81;47.72;96342.97;1048095;28;1303;-56
2021/09/07 02:33:19;;;;;;;;;;;;;;;21.83;47.70;96347.97;1049133;28;1146;-58
2021/09/07 02:33:49;;;;;;;;;;;;;;;21.82;47.83;96343.75;1046634;28;1096;-56
2021/09/07 02:34:19;;;;;;;;;;;;;;;21.82;47.61;96352.44;1049294;28;1130;-57
2021/09/07 02:34:50;;;;;;;;;;;;;;;21.82;47.65;96346.41;1049412;28;1071;-54
2021/09/07 02:35:20;;;;;;;;;;;;;;;21.83;47.64;96347.97;1048072;28;2009;-54
2021/09/07 02:35:50;;;;;;;;;;;;;;;21.82;47.87;96346.41;1048936;28;1358;-57
2021/09/07 02:36:23;;;;;;;;;;;;;;;21.82;47.95;96346.41;1049059;28;1012;-56
2021/09/07 02:36:54;;;;;;;;;;;;;;;21.80;47.77;96346.59;1048855;28;1616;-55
2021/09/07 02:37:24;;;;;;;;;;;;;;;21.81;47.81;96344.78;1048875;28;1044;-56
2021/09/07 02:37:54;;;;;;;;;;;;;;;21.82;47.52;96346.41;1049029;28;1064;-57
2021/09/07 02:38:25;;;;;;;;;;;;;;;21.82;47.64;96346.41;1048890;28;1119;-57
2021/09/07 02:38:55;;;;;;;;;;;;;;;21.81;47.78;96344.78;1047825;28;1676;-56
2021/09/07 02:39:25;;;;;;;;;;;;;;;21.81;47.73;96344.78;1047992;28;1908;-56
2021/09/07 02:39:56;;;;;;;;;;;;;;;21.82;47.79;96346.41;1046774;28;1009;-57
2021/09/07 02:40:26;;;;;;;;;;;;;;;21.80;47.49;96346.59;1048378;28;2437;-56
2021/09/07 02:40:59;;;;;;;;;;;;;;;21.81;47.69;96347.41;1048863;28;1154;-57
2021/09/07 02:41:29;;;;;;;;;;;;;;;21.81;47.55;96344.78;1048913;28;1111;-56
2021/09/07 02:42:00;;;;;;;;;;;;;;;21.80;47.69;96346.59;1048821;28;1102;-58
2021/09/07 02:42:30;;;;;;;;;;;;;;;21.80;47.63;96349.25;1049184;28;1437;-56
2021/09/07 02:43:01;;;;;;;;;;;;;;;21.81;47.78;96342.13;1048383;28;1910;-57
2021/09/07 02:43:31;;;;;;;;;;;;;;;21.80;47.56;96348.47;1049266;28;1157;-58
2021/09/07 02:44:01;;;;;;;;;;;;;;;21.80;47.74;96348.47;1048991;28;1037;-56
2021/09/07 02:44:32;;;;;;;;;;;;;;;21.79;47.83;96339.78;1048879;28;783;-58
2021/09/07 02:45:02;;;;;;;;;;;;;;;21.80;47.71;96345.84;1048040;28;1068;-56
2021/09/07 02:45:32;;;;;;;;;;;;;;;21.79;47.46;96341.59;1047505;28;2539;-58
2021/09/07 02:46:03;;;;;;;;;;;;;;;21.80;47.67;96345.84;1049139;28;1040;-58
2021/09/07 02:46:33;;;;;;;;;;;;;;;21.79;47.53;96345.03;1049461;28;1055;-58
2021/09/07 02:47:03;;;;;;;;;;;;;;;21.79;47.97;96346.88;1049170;28;1071;-57